sensor_id;sensor_type;location;lat;lon;timestamp;P1;durP1;ratioP1;P2;durP2;ratioP2
77978;SDS011;67169;50.268;8.694;2023-03-31T00:01:37;3.33;;;1.20;;
77978;SDS011;67169;50.268;8.694;2023-03-31T00:04:06;3.05;;;1.20;;
77978;SDS011;67169;50.268;8.694;2023-03-31T00:06:34;12.75;;;1.40;;
77978;SDS011;67169;50.268;8.694;2023-03-31T00:09:03;4.53;;;1.00;;
77978;SDS011;67169;50.268;8.694;2023-03-31T00:11:29;4.32;;;0.90;;
77978;SDS011;67169;50.268;8.694;2023-03-31T00:13:56;3.72;;;1.73;;
77978;SDS011;67169;50.268;8.694;2023-03-31T00:16:22;8.40;;;1.45;;
77978;SDS011;67169;50.268;8.694;2023-03-31T00:18:50;5.20;;;1.30;;
77978;SDS011;67169;50.268;8.694;2023-03-31T00:21:17;5.97;;;1.23;;
77978;SDS011;67169;50.268;8.694;2023-03-31T00:23:54;8.13;;;1.38;;
77978;SDS011;67169;50.268;8.694;2023-03-31T00:26:22;7.97;;;1.75;;
77978;SDS011;67169;50.268;8.694;2023-03-31T00:28:50;8.65;;;1.52;;
77978;SDS011;67169;50.268;8.694;2023-03-31T00:31:17;6.95;;;1.90;;
77978;SDS011;67169;50.268;8.694;2023-03-31T00:33:44;5.43;;;1.30;;
77978;SDS011;67169;50.268;8.694;2023-03-31T00:36:12;5.85;;;1.83;;
77978;SDS011;67169;50.268;8.694;2023-03-31T00:41:12;3.17;;;1.50;;
77978;SDS011;67169;50.268;8.694;2023-03-31T00:43:38;7.32;;;1.25;;
77978;SDS011;67169;50.268;8.694;2023-03-31T00:46:08;4.65;;;1.35;;
77978;SDS011;67169;50.268;8.694;2023-03-31T00:48:43;4.85;;;1.88;;
77978;SDS011;67169;50.268;8.694;2023-03-31T00:51:15;7.05;;;1.42;;
77978;SDS011;67169;50.268;8.694;2023-03-31T00:53:43;4.05;;;1.38;;
77978;SDS011;67169;50.268;8.694;2023-03-31T00:56:13;6.43;;;1.50;;
77978;SDS011;67169;50.268;8.694;2023-03-31T00:58:42;7.72;;;1.58;;
77978;SDS011;67169;50.268;8.694;2023-03-31T01:01:12;6.35;;;1.67;;
77978;SDS011;67169;50.268;8.694;2023-03-31T01:03:41;7.45;;;2.10;;
77978;SDS011;67169;50.268;8.694;2023-03-31T01:06:09;5.10;;;1.38;;
77978;SDS011;67169;50.268;8.694;2023-03-31T01:08:37;6.65;;;1.90;;
77978;SDS011;67169;50.268;8.694;2023-03-31T01:11:08;4.30;;;1.55;;
77978;SDS011;67169;50.268;8.694;2023-03-31T01:13:38;6.85;;;1.50;;
77978;SDS011;67169;50.268;8.694;2023-03-31T01:16:06;7.50;;;2.10;;
77978;SDS011;67169;50.268;8.694;2023-03-31T01:18:32;7.65;;;2.20;;
77978;SDS011;67169;50.268;8.694;2023-03-31T01:21:23;7.18;;;1.80;;
77978;SDS011;67169;50.268;8.694;2023-03-31T01:24:20;7.13;;;1.30;;
77978;SDS011;67169;50.268;8.694;2023-03-31T01:27:16;6.53;;;1.20;;
77978;SDS011;67169;50.268;8.694;2023-03-31T01:36:09;4.85;;;1.40;;
77978;SDS011;67169;50.268;8.694;2023-03-31T01:39:06;3.28;;;1.50;;
77978;SDS011;67169;50.268;8.694;2023-03-31T01:41:59;3.83;;;1.88;;
77978;SDS011;67169;50.268;8.694;2023-03-31T01:44:36;4.95;;;1.13;;
77978;SDS011;67169;50.268;8.694;2023-03-31T01:47:09;7.93;;;1.88;;
77978;SDS011;67169;50.268;8.694;2023-03-31T01:49:42;7.03;;;1.52;;
77978;SDS011;67169;50.268;8.694;2023-03-31T01:52:18;4.47;;;1.52;;
77978;SDS011;67169;50.268;8.694;2023-03-31T01:54:48;5.63;;;1.70;;
77978;SDS011;67169;50.268;8.694;2023-03-31T01:57:22;6.43;;;1.70;;
77978;SDS011;67169;50.268;8.694;2023-03-31T01:59:54;7.32;;;1.83;;
77978;SDS011;67169;50.268;8.694;2023-03-31T02:02:28;4.03;;;1.48;;
77978;SDS011;67169;50.268;8.694;2023-03-31T02:05:01;4.13;;;1.85;;
77978;SDS011;67169;50.268;8.694;2023-03-31T02:07:33;4.70;;;1.70;;
77978;SDS011;67169;50.268;8.694;2023-03-31T02:10:05;6.78;;;2.00;;
77978;SDS011;67169;50.268;8.694;2023-03-31T02:12:37;8.05;;;2.13;;
77978;SDS011;67169;50.268;8.694;2023-03-31T02:15:06;5.95;;;1.90;;
77978;SDS011;67169;50.268;8.694;2023-03-31T02:17:36;8.60;;;1.98;;
77978;SDS011;67169;50.268;8.694;2023-03-31T02:20:06;8.07;;;2.20;;
77978;SDS011;67169;50.268;8.694;2023-03-31T02:22:38;8.82;;;1.80;;
77978;SDS011;67169;50.268;8.694;2023-03-31T02:25:09;11.93;;;1.90;;
77978;SDS011;67169;50.268;8.694;2023-03-31T02:27:40;5.43;;;2.15;;
77978;SDS011;67169;50.268;8.694;2023-03-31T02:30:08;3.40;;;1.60;;
77978;SDS011;67169;50.268;8.694;2023-03-31T02:32:37;6.15;;;1.85;;
77978;SDS011;67169;50.268;8.694;2023-03-31T02:35:06;6.20;;;2.25;;
77978;SDS011;67169;50.268;8.694;2023-03-31T02:37:35;7.55;;;2.63;;
77978;SDS011;67169;50.268;8.694;2023-03-31T02:40:04;6.65;;;2.45;;
77978;SDS011;67169;50.268;8.694;2023-03-31T02:42:34;13.63;;;2.40;;
77978;SDS011;67169;50.268;8.694;2023-03-31T02:45:04;6.20;;;2.13;;
77978;SDS011;67169;50.268;8.694;2023-03-31T02:47:32;8.27;;;2.17;;
77978;SDS011;67169;50.268;8.694;2023-03-31T02:50:00;6.07;;;1.75;;
77978;SDS011;67169;50.268;8.694;2023-03-31T02:55:25;8.57;;;2.10;;
77978;SDS011;67169;50.268;8.694;2023-03-31T02:58:20;8.75;;;2.28;;
77978;SDS011;67169;50.268;8.694;2023-03-31T03:01:07;5.68;;;2.17;;
77978;SDS011;67169;50.268;8.694;2023-03-31T03:03:42;4.75;;;2.10;;
77978;SDS011;67169;50.268;8.694;2023-03-31T03:06:18;7.57;;;2.08;;
77978;SDS011;67169;50.268;8.694;2023-03-31T03:08:57;5.82;;;1.63;;
77978;SDS011;67169;50.268;8.694;2023-03-31T03:11:32;5.38;;;2.13;;
77978;SDS011;67169;50.268;8.694;2023-03-31T03:14:11;8.18;;;2.67;;
77978;SDS011;67169;50.268;8.694;2023-03-31T03:16:46;6.07;;;2.53;;
77978;SDS011;67169;50.268;8.694;2023-03-31T03:19:17;8.82;;;2.00;;
77978;SDS011;67169;50.268;8.694;2023-03-31T03:21:45;9.30;;;2.10;;
77978;SDS011;67169;50.268;8.694;2023-03-31T03:24:12;7.90;;;1.90;;
77978;SDS011;67169;50.268;8.694;2023-03-31T03:26:39;7.32;;;2.33;;
77978;SDS011;67169;50.268;8.694;2023-03-31T03:29:05;7.07;;;1.67;;
77978;SDS011;67169;50.268;8.694;2023-03-31T03:31:32;6.38;;;1.55;;
77978;SDS011;67169;50.268;8.694;2023-03-31T03:34:00;5.57;;;1.73;;
77978;SDS011;67169;50.268;8.694;2023-03-31T03:36:27;8.63;;;1.90;;
77978;SDS011;67169;50.268;8.694;2023-03-31T03:38:53;8.68;;;1.88;;
77978;SDS011;67169;50.268;8.694;2023-03-31T03:41:20;6.03;;;2.20;;
77978;SDS011;67169;50.268;8.694;2023-03-31T03:43:46;6.63;;;1.83;;
77978;SDS011;67169;50.268;8.694;2023-03-31T03:46:13;8.90;;;1.90;;
77978;SDS011;67169;50.268;8.694;2023-03-31T03:48:39;6.95;;;1.73;;
77978;SDS011;67169;50.268;8.694;2023-03-31T03:51:07;8.35;;;1.92;;
77978;SDS011;67169;50.268;8.694;2023-03-31T03:53:34;6.85;;;2.35;;
77978;SDS011;67169;50.268;8.694;2023-03-31T03:56:00;6.40;;;1.95;;
77978;SDS011;67169;50.268;8.694;2023-03-31T03:58:27;5.70;;;2.25;;
77978;SDS011;67169;50.268;8.694;2023-03-31T04:00:53;3.83;;;1.67;;
77978;SDS011;67169;50.268;8.694;2023-03-31T04:03:20;10.73;;;2.35;;
77978;SDS011;67169;50.268;8.694;2023-03-31T04:05:47;5.90;;;2.00;;
77978;SDS011;67169;50.268;8.694;2023-03-31T04:08:16;5.07;;;1.83;;
77978;SDS011;67169;50.268;8.694;2023-03-31T04:10:43;8.73;;;2.50;;
77978;SDS011;67169;50.268;8.694;2023-03-31T04:13:10;9.60;;;2.88;;
77978;SDS011;67169;50.268;8.694;2023-03-31T04:15:37;9.18;;;1.90;;
77978;SDS011;67169;50.268;8.694;2023-03-31T04:18:03;6.57;;;2.60;;
77978;SDS011;67169;50.268;8.694;2023-03-31T04:20:30;6.00;;;2.22;;
77978;SDS011;67169;50.268;8.694;2023-03-31T04:22:56;6.63;;;2.00;;
77978;SDS011;67169;50.268;8.694;2023-03-31T04:25:24;8.48;;;2.30;;
77978;SDS011;67169;50.268;8.694;2023-03-31T04:27:54;11.07;;;2.72;;
77978;SDS011;67169;50.268;8.694;2023-03-31T04:30:21;7.90;;;2.33;;
77978;SDS011;67169;50.268;8.694;2023-03-31T04:35:17;7.18;;;2.42;;
77978;SDS011;67169;50.268;8.694;2023-03-31T04:37:44;5.93;;;2.08;;
77978;SDS011;67169;50.268;8.694;2023-03-31T04:40:11;5.95;;;2.60;;
77978;SDS011;67169;50.268;8.694;2023-03-31T04:42:39;8.05;;;2.75;;
77978;SDS011;67169;50.268;8.694;2023-03-31T04:45:06;6.60;;;2.60;;
77978;SDS011;67169;50.268;8.694;2023-03-31T04:47:33;6.47;;;2.35;;
77978;SDS011;67169;50.268;8.694;2023-03-31T04:50:00;6.95;;;2.47;;
77978;SDS011;67169;50.268;8.694;2023-03-31T04:52:26;4.97;;;2.10;;
77978;SDS011;67169;50.268;8.694;2023-03-31T04:54:53;8.13;;;2.80;;
77978;SDS011;67169;50.268;8.694;2023-03-31T04:57:19;7.38;;;2.20;;
77978;SDS011;67169;50.268;8.694;2023-03-31T04:59:47;7.97;;;2.00;;
77978;SDS011;67169;50.268;8.694;2023-03-31T05:04:47;7.97;;;2.10;;
77978;SDS011;67169;50.268;8.694;2023-03-31T05:07:13;6.13;;;2.13;;
77978;SDS011;67169;50.268;8.694;2023-03-31T05:09:40;5.10;;;1.67;;
77978;SDS011;67169;50.268;8.694;2023-03-31T05:12:06;9.55;;;2.67;;
77978;SDS011;67169;50.268;8.694;2023-03-31T05:14:33;4.28;;;2.38;;
77978;SDS011;67169;50.268;8.694;2023-03-31T05:17:01;8.48;;;2.78;;
77978;SDS011;67169;50.268;8.694;2023-03-31T05:19:27;6.32;;;2.33;;
77978;SDS011;67169;50.268;8.694;2023-03-31T05:21:54;9.55;;;2.95;;
77978;SDS011;67169;50.268;8.694;2023-03-31T05:24:20;11.90;;;3.03;;
77978;SDS011;67169;50.268;8.694;2023-03-31T05:26:47;5.10;;;2.67;;
77978;SDS011;67169;50.268;8.694;2023-03-31T05:29:16;11.00;;;3.05;;
77978;SDS011;67169;50.268;8.694;2023-03-31T05:31:43;6.00;;;3.35;;
77978;SDS011;67169;50.268;8.694;2023-03-31T05:34:12;10.27;;;3.10;;
77978;SDS011;67169;50.268;8.694;2023-03-31T05:36:39;7.78;;;3.08;;
77978;SDS011;67169;50.268;8.694;2023-03-31T05:39:07;7.32;;;2.70;;
77978;SDS011;67169;50.268;8.694;2023-03-31T05:41:34;9.88;;;3.00;;
77978;SDS011;67169;50.268;8.694;2023-03-31T05:44:00;12.85;;;3.53;;
77978;SDS011;67169;50.268;8.694;2023-03-31T05:46:27;8.05;;;3.05;;
77978;SDS011;67169;50.268;8.694;2023-03-31T05:48:53;10.57;;;3.15;;
77978;SDS011;67169;50.268;8.694;2023-03-31T05:51:21;8.30;;;2.58;;
77978;SDS011;67169;50.268;8.694;2023-03-31T05:53:48;12.15;;;3.22;;
77978;SDS011;67169;50.268;8.694;2023-03-31T05:56:15;8.65;;;2.90;;
77978;SDS011;67169;50.268;8.694;2023-03-31T05:58:41;10.68;;;3.15;;
77978;SDS011;67169;50.268;8.694;2023-03-31T06:01:08;8.18;;;2.90;;
77978;SDS011;67169;50.268;8.694;2023-03-31T06:03:36;10.25;;;2.92;;
77978;SDS011;67169;50.268;8.694;2023-03-31T06:06:05;9.25;;;2.60;;
77978;SDS011;67169;50.268;8.694;2023-03-31T06:08:34;8.15;;;2.88;;
77978;SDS011;67169;50.268;8.694;2023-03-31T06:11:03;13.13;;;3.30;;
77978;SDS011;67169;50.268;8.694;2023-03-31T06:13:30;8.90;;;2.63;;
77978;SDS011;67169;50.268;8.694;2023-03-31T06:15:57;10.02;;;2.33;;
77978;SDS011;67169;50.268;8.694;2023-03-31T06:18:25;5.03;;;2.60;;
77978;SDS011;67169;50.268;8.694;2023-03-31T06:20:53;8.95;;;2.55;;
77978;SDS011;67169;50.268;8.694;2023-03-31T06:23:20;7.45;;;2.85;;
77978;SDS011;67169;50.268;8.694;2023-03-31T06:25:48;7.03;;;2.42;;
77978;SDS011;67169;50.268;8.694;2023-03-31T06:28:15;8.75;;;2.53;;
77978;SDS011;67169;50.268;8.694;2023-03-31T06:30:42;7.43;;;2.30;;
77978;SDS011;67169;50.268;8.694;2023-03-31T06:33:08;10.48;;;2.33;;
77978;SDS011;67169;50.268;8.694;2023-03-31T06:35:36;7.65;;;2.80;;
77978;SDS011;67169;50.268;8.694;2023-03-31T06:38:03;8.50;;;2.50;;
77978;SDS011;67169;50.268;8.694;2023-03-31T06:40:30;7.40;;;2.30;;
77978;SDS011;67169;50.268;8.694;2023-03-31T06:42:58;6.15;;;2.20;;
77978;SDS011;67169;50.268;8.694;2023-03-31T06:50:17;7.65;;;2.03;;
77978;SDS011;67169;50.268;8.694;2023-03-31T06:52:44;6.75;;;2.13;;
77978;SDS011;67169;50.268;8.694;2023-03-31T06:55:11;12.57;;;1.98;;
77978;SDS011;67169;50.268;8.694;2023-03-31T06:57:39;5.90;;;2.13;;
77978;SDS011;67169;50.268;8.694;2023-03-31T07:00:08;9.15;;;2.28;;
77978;SDS011;67169;50.268;8.694;2023-03-31T07:02:35;10.30;;;1.85;;
77978;SDS011;67169;50.268;8.694;2023-03-31T07:05:02;7.32;;;1.80;;
77978;SDS011;67169;50.268;8.694;2023-03-31T07:07:29;5.07;;;1.90;;
77978;SDS011;67169;50.268;8.694;2023-03-31T07:09:56;10.70;;;2.17;;
77978;SDS011;67169;50.268;8.694;2023-03-31T07:12:23;8.80;;;2.50;;
77978;SDS011;67169;50.268;8.694;2023-03-31T07:14:50;11.43;;;3.08;;
77978;SDS011;67169;50.268;8.694;2023-03-31T07:17:17;10.73;;;3.95;;
77978;SDS011;67169;50.268;8.694;2023-03-31T07:19:44;9.50;;;3.70;;
77978;SDS011;67169;50.268;8.694;2023-03-31T07:22:12;8.15;;;4.22;;
77978;SDS011;67169;50.268;8.694;2023-03-31T07:24:38;8.32;;;3.50;;
77978;SDS011;67169;50.268;8.694;2023-03-31T07:27:05;11.77;;;5.03;;
77978;SDS011;67169;50.268;8.694;2023-03-31T07:29:31;11.13;;;4.22;;
77978;SDS011;67169;50.268;8.694;2023-03-31T07:31:58;11.20;;;4.18;;
77978;SDS011;67169;50.268;8.694;2023-03-31T07:34:26;6.53;;;3.28;;
77978;SDS011;67169;50.268;8.694;2023-03-31T07:36:53;8.55;;;3.13;;
77978;SDS011;67169;50.268;8.694;2023-03-31T07:39:20;6.65;;;2.60;;
77978;SDS011;67169;50.268;8.694;2023-03-31T07:41:46;7.32;;;3.03;;
77978;SDS011;67169;50.268;8.694;2023-03-31T07:44:13;11.13;;;4.05;;
77978;SDS011;67169;50.268;8.694;2023-03-31T07:46:41;9.90;;;4.85;;
77978;SDS011;67169;50.268;8.694;2023-03-31T07:49:08;9.60;;;5.75;;
77978;SDS011;67169;50.268;8.694;2023-03-31T07:51:35;12.02;;;5.05;;
77978;SDS011;67169;50.268;8.694;2023-03-31T07:54:02;5.55;;;3.38;;
77978;SDS011;67169;50.268;8.694;2023-03-31T07:56:29;8.07;;;4.47;;
77978;SDS011;67169;50.268;8.694;2023-03-31T07:58:55;10.18;;;4.15;;
77978;SDS011;67169;50.268;8.694;2023-03-31T08:01:22;7.72;;;3.15;;
77978;SDS011;67169;50.268;8.694;2023-03-31T08:03:50;7.40;;;3.28;;
77978;SDS011;67169;50.268;8.694;2023-03-31T08:06:18;5.32;;;3.17;;
77978;SDS011;67169;50.268;8.694;2023-03-31T08:08:47;9.20;;;3.55;;
77978;SDS011;67169;50.268;8.694;2023-03-31T08:11:14;4.43;;;3.10;;
77978;SDS011;67169;50.268;8.694;2023-03-31T08:13:40;7.05;;;2.95;;
77978;SDS011;67169;50.268;8.694;2023-03-31T08:16:07;7.85;;;2.78;;
77978;SDS011;67169;50.268;8.694;2023-03-31T08:18:33;3.95;;;3.08;;
77978;SDS011;67169;50.268;8.694;2023-03-31T08:21:00;5.25;;;2.53;;
77978;SDS011;67169;50.268;8.694;2023-03-31T08:23:27;4.50;;;2.55;;
77978;SDS011;67169;50.268;8.694;2023-03-31T08:25:54;5.05;;;2.00;;
77978;SDS011;67169;50.268;8.694;2023-03-31T08:28:33;3.20;;;2.05;;
77978;SDS011;67169;50.268;8.694;2023-03-31T08:31:01;6.32;;;2.03;;
77978;SDS011;67169;50.268;8.694;2023-03-31T08:33:29;6.18;;;2.15;;
77978;SDS011;67169;50.268;8.694;2023-03-31T08:35:55;3.72;;;2.15;;
77978;SDS011;67169;50.268;8.694;2023-03-31T08:38:22;3.55;;;2.28;;
77978;SDS011;67169;50.268;8.694;2023-03-31T08:40:48;2.40;;;1.67;;
77978;SDS011;67169;50.268;8.694;2023-03-31T08:43:17;2.85;;;1.15;;
77978;SDS011;67169;50.268;8.694;2023-03-31T08:45:52;3.72;;;1.27;;
77978;SDS011;67169;50.268;8.694;2023-03-31T08:48:21;3.72;;;1.60;;
77978;SDS011;67169;50.268;8.694;2023-03-31T08:50:51;4.22;;;1.73;;
77978;SDS011;67169;50.268;8.694;2023-03-31T08:53:22;3.45;;;2.10;;
77978;SDS011;67169;50.268;8.694;2023-03-31T08:55:54;2.85;;;2.00;;
77978;SDS011;67169;50.268;8.694;2023-03-31T08:58:31;4.05;;;2.45;;
77978;SDS011;67169;50.268;8.694;2023-03-31T09:01:05;4.00;;;2.60;;
77978;SDS011;67169;50.268;8.694;2023-03-31T09:03:39;5.70;;;2.63;;
77978;SDS011;67169;50.268;8.694;2023-03-31T09:06:15;7.20;;;2.70;;
77978;SDS011;67169;50.268;8.694;2023-03-31T09:08:45;5.32;;;2.35;;
77978;SDS011;67169;50.268;8.694;2023-03-31T09:11:13;6.55;;;2.33;;
77978;SDS011;67169;50.268;8.694;2023-03-31T09:13:58;2.30;;;2.05;;
77978;SDS011;67169;50.268;8.694;2023-03-31T09:16:36;3.83;;;2.55;;
77978;SDS011;67169;50.268;8.694;2023-03-31T09:19:10;4.85;;;2.50;;
77978;SDS011;67169;50.268;8.694;2023-03-31T09:21:42;8.27;;;2.00;;
77978;SDS011;67169;50.268;8.694;2023-03-31T09:24:13;4.00;;;1.77;;
77978;SDS011;67169;50.268;8.694;2023-03-31T09:26:44;3.97;;;1.60;;
77978;SDS011;67169;50.268;8.694;2023-03-31T09:29:16;4.13;;;2.03;;
77978;SDS011;67169;50.268;8.694;2023-03-31T09:31:48;5.65;;;1.52;;
77978;SDS011;67169;50.268;8.694;2023-03-31T09:34:16;2.58;;;1.25;;
77978;SDS011;67169;50.268;8.694;2023-03-31T09:36:49;2.13;;;1.30;;
77978;SDS011;67169;50.268;8.694;2023-03-31T09:39:16;4.35;;;1.20;;
77978;SDS011;67169;50.268;8.694;2023-03-31T09:41:43;4.13;;;1.52;;
77978;SDS011;67169;50.268;8.694;2023-03-31T09:44:18;3.33;;;1.52;;
77978;SDS011;67169;50.268;8.694;2023-03-31T09:46:49;4.90;;;1.15;;
77978;SDS011;67169;50.268;8.694;2023-03-31T09:49:17;4.15;;;1.60;;
77978;SDS011;67169;50.268;8.694;2023-03-31T09:51:47;1.80;;;1.10;;
77978;SDS011;67169;50.268;8.694;2023-03-31T09:54:20;3.45;;;1.60;;
77978;SDS011;67169;50.268;8.694;2023-03-31T09:56:53;3.60;;;1.05;;
77978;SDS011;67169;50.268;8.694;2023-03-31T09:59:22;4.00;;;1.52;;
77978;SDS011;67169;50.268;8.694;2023-03-31T10:01:56;6.65;;;1.98;;
77978;SDS011;67169;50.268;8.694;2023-03-31T10:04:27;3.35;;;2.13;;
77978;SDS011;67169;50.268;8.694;2023-03-31T10:06:55;3.92;;;1.27;;
77978;SDS011;67169;50.268;8.694;2023-03-31T10:09:23;5.75;;;1.88;;
77978;SDS011;67169;50.268;8.694;2023-03-31T10:11:52;7.88;;;2.15;;
77978;SDS011;67169;50.268;8.694;2023-03-31T10:14:24;3.53;;;1.67;;
77978;SDS011;67169;50.268;8.694;2023-03-31T10:16:57;5.00;;;1.67;;
77978;SDS011;67169;50.268;8.694;2023-03-31T10:19:27;4.10;;;1.42;;
77978;SDS011;67169;50.268;8.694;2023-03-31T10:21:57;6.22;;;1.88;;
77978;SDS011;67169;50.268;8.694;2023-03-31T10:24:25;2.05;;;1.40;;
77978;SDS011;67169;50.268;8.694;2023-03-31T10:27:00;4.47;;;1.85;;
77978;SDS011;67169;50.268;8.694;2023-03-31T10:29:29;5.93;;;1.90;;
77978;SDS011;67169;50.268;8.694;2023-03-31T10:32:01;4.50;;;1.75;;
77978;SDS011;67169;50.268;8.694;2023-03-31T10:34:29;4.78;;;1.80;;
77978;SDS011;67169;50.268;8.694;2023-03-31T10:36:56;2.83;;;1.58;;
77978;SDS011;67169;50.268;8.694;2023-03-31T10:39:24;3.30;;;0.95;;
77978;SDS011;67169;50.268;8.694;2023-03-31T10:41:56;9.30;;;1.75;;
77978;SDS011;67169;50.268;8.694;2023-03-31T10:44:31;3.78;;;1.40;;
77978;SDS011;67169;50.268;8.694;2023-03-31T10:47:05;4.03;;;1.92;;
77978;SDS011;67169;50.268;8.694;2023-03-31T10:49:42;7.10;;;2.05;;
77978;SDS011;67169;50.268;8.694;2023-03-31T10:52:19;4.50;;;1.27;;
77978;SDS011;67169;50.268;8.694;2023-03-31T10:54:48;3.50;;;0.75;;
77978;SDS011;67169;50.268;8.694;2023-03-31T10:57:16;2.08;;;1.00;;
77978;SDS011;67169;50.268;8.694;2023-03-31T10:59:51;2.05;;;0.90;;
77978;SDS011;67169;50.268;8.694;2023-03-31T11:02:40;6.45;;;0.90;;
77978;SDS011;67169;50.268;8.694;2023-03-31T11:05:24;3.10;;;1.10;;
77978;SDS011;67169;50.268;8.694;2023-03-31T11:08:01;4.68;;;1.27;;
77978;SDS011;67169;50.268;8.694;2023-03-31T11:10:46;3.47;;;0.77;;
77978;SDS011;67169;50.268;8.694;2023-03-31T11:13:20;4.75;;;0.88;;
77978;SDS011;67169;50.268;8.694;2023-03-31T11:15:54;7.72;;;1.27;;
77978;SDS011;67169;50.268;8.694;2023-03-31T11:18:38;4.70;;;0.70;;
77978;SDS011;67169;50.268;8.694;2023-03-31T11:21:20;2.65;;;1.25;;
77978;SDS011;67169;50.268;8.694;2023-03-31T11:23:57;7.15;;;1.55;;
77978;SDS011;67169;50.268;8.694;2023-03-31T11:26:37;2.35;;;0.65;;
77978;SDS011;67169;50.268;8.694;2023-03-31T11:29:12;4.43;;;1.00;;
77978;SDS011;67169;50.268;8.694;2023-03-31T11:31:50;3.78;;;0.90;;
77978;SDS011;67169;50.268;8.694;2023-03-31T11:34:29;5.68;;;1.13;;
77978;SDS011;67169;50.268;8.694;2023-03-31T11:37:14;2.67;;;0.73;;
77978;SDS011;67169;50.268;8.694;2023-03-31T11:42:59;5.43;;;0.77;;
77978;SDS011;67169;50.268;8.694;2023-03-31T11:45:32;4.15;;;1.00;;
77978;SDS011;67169;50.268;8.694;2023-03-31T11:48:05;4.05;;;1.08;;
77978;SDS011;67169;50.268;8.694;2023-03-31T11:50:41;3.97;;;0.82;;
77978;SDS011;67169;50.268;8.694;2023-03-31T11:53:13;4.60;;;0.75;;
77978;SDS011;67169;50.268;8.694;2023-03-31T11:55:42;8.02;;;1.30;;
77978;SDS011;67169;50.268;8.694;2023-03-31T11:58:12;3.40;;;1.13;;
77978;SDS011;67169;50.268;8.694;2023-03-31T12:00:43;6.38;;;0.90;;
77978;SDS011;67169;50.268;8.694;2023-03-31T12:03:15;3.55;;;0.65;;
77978;SDS011;67169;50.268;8.694;2023-03-31T12:05:47;7.13;;;0.90;;
77978;SDS011;67169;50.268;8.694;2023-03-31T12:08:17;5.93;;;1.00;;
77978;SDS011;67169;50.268;8.694;2023-03-31T12:10:52;3.47;;;1.00;;
77978;SDS011;67169;50.268;8.694;2023-03-31T12:13:27;1.95;;;0.40;;
77978;SDS011;67169;50.268;8.694;2023-03-31T12:16:00;6.63;;;1.00;;
77978;SDS011;67169;50.268;8.694;2023-03-31T12:18:33;2.38;;;0.60;;
77978;SDS011;67169;50.268;8.694;2023-03-31T12:21:05;3.63;;;0.82;;
77978;SDS011;67169;50.268;8.694;2023-03-31T12:23:38;4.93;;;0.80;;
77978;SDS011;67169;50.268;8.694;2023-03-31T12:26:10;4.32;;;0.85;;
77978;SDS011;67169;50.268;8.694;2023-03-31T12:28:49;5.70;;;0.90;;
77978;SDS011;67169;50.268;8.694;2023-03-31T12:31:22;5.05;;;0.93;;
77978;SDS011;67169;50.268;8.694;2023-03-31T12:33:53;6.07;;;0.60;;
77978;SDS011;67169;50.268;8.694;2023-03-31T12:36:26;3.10;;;0.95;;
77978;SDS011;67169;50.268;8.694;2023-03-31T12:39:06;6.07;;;0.93;;
77978;SDS011;67169;50.268;8.694;2023-03-31T12:41:44;3.95;;;1.10;;
77978;SDS011;67169;50.268;8.694;2023-03-31T12:44:24;2.92;;;0.90;;
77978;SDS011;67169;50.268;8.694;2023-03-31T12:47:02;3.45;;;1.00;;
77978;SDS011;67169;50.268;8.694;2023-03-31T12:49:46;4.22;;;1.58;;
77978;SDS011;67169;50.268;8.694;2023-03-31T12:52:21;4.47;;;0.98;;
77978;SDS011;67169;50.268;8.694;2023-03-31T12:54:56;4.10;;;1.00;;
77978;SDS011;67169;50.268;8.694;2023-03-31T12:57:41;2.20;;;0.55;;
77978;SDS011;67169;50.268;8.694;2023-03-31T13:00:21;7.75;;;2.03;;
77978;SDS011;67169;50.268;8.694;2023-03-31T13:02:49;3.45;;;0.70;;
77978;SDS011;67169;50.268;8.694;2023-03-31T13:05:47;7.57;;;3.80;;
77978;SDS011;67169;50.268;8.694;2023-03-31T13:11:22;4.88;;;2.08;;
77978;SDS011;67169;50.268;8.694;2023-03-31T13:14:03;2.95;;;1.33;;
77978;SDS011;67169;50.268;8.694;2023-03-31T13:16:32;2.92;;;0.68;;
77978;SDS011;67169;50.268;8.694;2023-03-31T13:19:00;7.25;;;1.05;;
77978;SDS011;67169;50.268;8.694;2023-03-31T13:21:28;2.38;;;0.95;;
77978;SDS011;67169;50.268;8.694;2023-03-31T13:23:58;3.38;;;0.77;;
77978;SDS011;67169;50.268;8.694;2023-03-31T13:26:39;1.70;;;0.40;;
77978;SDS011;67169;50.268;8.694;2023-03-31T13:29:18;2.95;;;0.93;;
77978;SDS011;67169;50.268;8.694;2023-03-31T13:32:05;3.03;;;0.40;;
77978;SDS011;67169;50.268;8.694;2023-03-31T13:34:35;4.07;;;0.70;;
77978;SDS011;67169;50.268;8.694;2023-03-31T13:37:11;1.77;;;0.90;;
77978;SDS011;67169;50.268;8.694;2023-03-31T13:39:49;2.83;;;0.50;;
77978;SDS011;67169;50.268;8.694;2023-03-31T13:42:40;5.95;;;0.68;;
77978;SDS011;67169;50.268;8.694;2023-03-31T13:45:40;4.72;;;0.55;;
77978;SDS011;67169;50.268;8.694;2023-03-31T13:48:19;3.08;;;0.85;;
77978;SDS011;67169;50.268;8.694;2023-03-31T13:51:14;3.00;;;0.50;;
77978;SDS011;67169;50.268;8.694;2023-03-31T13:53:59;5.53;;;1.13;;
77978;SDS011;67169;50.268;8.694;2023-03-31T13:56:51;1.88;;;0.75;;
77978;SDS011;67169;50.268;8.694;2023-03-31T13:59:37;1.40;;;0.70;;
77978;SDS011;67169;50.268;8.694;2023-03-31T14:02:30;2.55;;;0.60;;
77978;SDS011;67169;50.268;8.694;2023-03-31T14:05:22;4.20;;;0.75;;
77978;SDS011;67169;50.268;8.694;2023-03-31T14:07:53;2.83;;;0.85;;
77978;SDS011;67169;50.268;8.694;2023-03-31T14:10:25;3.97;;;0.73;;
77978;SDS011;67169;50.268;8.694;2023-03-31T14:13:05;5.07;;;0.82;;
77978;SDS011;67169;50.268;8.694;2023-03-31T14:15:33;2.88;;;0.75;;
77978;SDS011;67169;50.268;8.694;2023-03-31T14:18:01;5.15;;;1.08;;
77978;SDS011;67169;50.268;8.694;2023-03-31T14:20:30;2.80;;;0.60;;
77978;SDS011;67169;50.268;8.694;2023-03-31T14:23:06;2.85;;;0.52;;
77978;SDS011;67169;50.268;8.694;2023-03-31T14:25:45;3.40;;;0.52;;
77978;SDS011;67169;50.268;8.694;2023-03-31T14:28:33;2.25;;;0.50;;
77978;SDS011;67169;50.268;8.694;2023-03-31T14:31:13;2.13;;;0.50;;
77978;SDS011;67169;50.268;8.694;2023-03-31T14:33:50;2.65;;;0.60;;
77978;SDS011;67169;50.268;8.694;2023-03-31T14:36:34;3.60;;;0.65;;
77978;SDS011;67169;50.268;8.694;2023-03-31T14:39:08;1.63;;;0.22;;
77978;SDS011;67169;50.268;8.694;2023-03-31T14:41:38;0.38;;;0.20;;
77978;SDS011;67169;50.268;8.694;2023-03-31T14:44:06;2.35;;;0.40;;
77978;SDS011;67169;50.268;8.694;2023-03-31T14:46:36;3.30;;;0.65;;
77978;SDS011;67169;50.268;8.694;2023-03-31T14:51:32;2.55;;;0.65;;
77978;SDS011;67169;50.268;8.694;2023-03-31T14:53:58;1.48;;;0.40;;
77978;SDS011;67169;50.268;8.694;2023-03-31T14:56:28;2.97;;;0.40;;
77978;SDS011;67169;50.268;8.694;2023-03-31T14:59:00;2.63;;;0.60;;
77978;SDS011;67169;50.268;8.694;2023-03-31T15:01:28;1.02;;;0.20;;
77978;SDS011;67169;50.268;8.694;2023-03-31T15:03:59;3.25;;;0.98;;
77978;SDS011;67169;50.268;8.694;2023-03-31T15:06:30;1.77;;;0.40;;
77978;SDS011;67169;50.268;8.694;2023-03-31T15:08:59;5.50;;;0.40;;
77978;SDS011;67169;50.268;8.694;2023-03-31T15:11:28;6.85;;;0.88;;
77978;SDS011;67169;50.268;8.694;2023-03-31T15:13:56;2.72;;;0.82;;
77978;SDS011;67169;50.268;8.694;2023-03-31T15:16:30;2.30;;;0.30;;
77978;SDS011;67169;50.268;8.694;2023-03-31T15:19:02;3.67;;;0.50;;
77978;SDS011;67169;50.268;8.694;2023-03-31T15:21:35;1.98;;;0.73;;
77978;SDS011;67169;50.268;8.694;2023-03-31T15:24:03;4.63;;;0.60;;
77978;SDS011;67169;50.268;8.694;2023-03-31T15:26:31;4.30;;;0.68;;
77978;SDS011;67169;50.268;8.694;2023-03-31T15:29:01;2.75;;;0.68;;
77978;SDS011;67169;50.268;8.694;2023-03-31T15:31:32;0.80;;;0.30;;
77978;SDS011;67169;50.268;8.694;2023-03-31T15:36:25;0.93;;;0.20;;
77978;SDS011;67169;50.268;8.694;2023-03-31T15:38:56;2.30;;;0.40;;
77978;SDS011;67169;50.268;8.694;2023-03-31T15:41:27;2.00;;;0.30;;
77978;SDS011;67169;50.268;8.694;2023-03-31T15:44:01;2.58;;;0.60;;